Time;durP1;ratioP1;P1;durP2;ratioP2;P2;SDS_P1;SDS_P2;PMS_P1;PMS_P2;Temp;Humidity;BMP_temperature;BMP_pressure;BME280_temperature;BME280_humidity;BME280_pressure;Samples;Min_cycle;Max_cycle;Signal;HPM_P1;HPM_P2
2023/05/26 00:00:34;;;;;;;13.20;9.53;;;12.00;99.90;;;;;;6128252;23;20168;-75
2023/05/26 00:03:02;;;;;;;13.40;9.93;;;12.00;99.90;;;;;;6130763;23;20136;-72
2023/05/26 00:05:28;;;;;;;17.77;9.90;;;11.90;99.90;;;;;;6141045;23;20499;-73
2023/05/26 00:07:53;;;;;;;13.40;9.97;;;12.00;99.90;;;;;;6140751;23;20360;-74
2023/05/26 00:10:19;;;;;;;14.50;9.00;;;12.00;99.90;;;;;;6129404;23;20545;-74
2023/05/26 00:12:45;;;;;;;21.93;8.43;;;12.00;99.90;;;;;;6128618;23;20226;-76
2023/05/26 00:15:11;;;;;;;20.00;9.23;;;12.00;99.90;;;;;;6128349;23;20383;-76
2023/05/26 00:17:36;;;;;;;16.03;8.20;;;12.00;99.90;;;;;;6128731;23;20227;-74
2023/05/26 00:20:04;;;;;;;16.63;9.47;;;12.00;99.90;;;;;;6128168;23;20195;-74
2023/05/26 00:22:30;;;;;;;14.47;8.83;;;11.80;99.90;;;;;;6127704;23;20195;-76
2023/05/26 00:24:55;;;;;;;14.93;7.40;;;11.90;99.90;;;;;;6132986;23;20403;-74
2023/05/26 00:27:21;;;;;;;20.63;9.47;;;11.80;99.90;;;;;;6130142;23;20465;-75
2023/05/26 00:29:48;;;;;;;15.37;7.30;;;11.70;99.90;;;;;;6126968;23;20168;-76
2023/05/26 00:32:14;;;;;;;18.43;8.03;;;11.70;99.90;;;;;;6151860;23;20467;-74
2023/05/26 00:34:39;;;;;;;23.37;8.17;;;11.70;99.90;;;;;;6127720;23;20144;-74
2023/05/26 00:37:05;;;;;;;14.93;7.23;;;11.70;99.90;;;;;;6129590;23;20376;-74
2023/05/26 00:39:30;;;;;;;15.73;8.23;;;11.60;99.90;;;;;;6127761;23;20164;-74
2023/05/26 00:41:57;;;;;;;28.30;7.60;;;11.60;99.90;;;;;;6128581;23;20384;-74
2023/05/26 00:44:23;;;;;;;24.53;7.00;;;11.70;99.90;;;;;;6127404;23;20148;-74
2023/05/26 00:46:49;;;;;;;22.13;8.23;;;11.50;99.90;;;;;;6129284;23;20419;-74
2023/05/26 00:49:15;;;;;;;19.17;9.23;;;11.50;99.90;;;;;;6127977;23;20211;-75
2023/05/26 00:51:43;;;;;;;16.77;7.93;;;11.50;99.90;;;;;;6127343;23;20769;-75
2023/05/26 00:54:09;;;;;;;25.07;9.13;;;11.40;99.90;;;;;;6128318;23;20412;-73
2023/05/26 00:56:35;;;;;;;19.83;8.70;;;11.40;99.90;;;;;;6127369;23;20367;-74
2023/05/26 00:59:03;;;;;;;19.03;7.90;;;11.40;99.90;;;;;;6127067;23;20397;-73
2023/05/26 01:01:30;;;;;;;17.07;7.87;;;11.40;99.90;;;;;;6127055;23;20368;-76
2023/05/26 01:03:55;;;;;;;19.67;6.43;;;11.30;99.90;;;;;;6128620;23;20371;-74
2023/05/26 01:06:22;;;;;;;20.50;7.97;;;11.20;99.90;;;;;;6127518;23;20562;-74
2023/05/26 01:08:48;;;;;;;17.30;7.30;;;11.20;99.90;;;;;;6127885;23;20187;-76
2023/05/26 01:11:26;;;;;;;17.20;6.97;;;11.20;99.90;;;;;;6128773;23;20622;-75
2023/05/26 01:13:57;;;;;;;22.33;7.50;;;11.10;99.90;;;;;;6128105;23;20352;-74
2023/05/26 01:16:33;;;;;;;22.97;7.20;;;11.10;99.90;;;;;;6127353;23;20777;-75
2023/05/26 01:19:34;;;;;;;20.83;7.30;;;11.10;99.90;;;;;;6127017;23;20399;-75
2023/05/26 01:22:17;;;;;;;21.00;6.20;;;11.10;99.90;;;;;;6128525;23;20454;-74
2023/05/26 01:25:05;;;;;;;19.50;7.03;;;11.10;99.90;;;;;;6127037;23;20438;-72
2023/05/26 01:27:36;;;;;;;13.50;5.40;;;11.00;99.90;;;;;;6130309;23;20490;-75
2023/05/26 01:30:02;;;;;;;20.33;6.50;;;10.90;99.90;;;;;;6129861;23;20404;-73
2023/05/26 01:32:28;;;;;;;15.20;6.53;;;10.80;99.90;;;;;;6129777;23;20390;-74
2023/05/26 01:34:53;;;;;;;15.47;6.13;;;10.80;99.90;;;;;;6131467;23;20167;-74
2023/05/26 01:37:19;;;;;;;21.37;5.37;;;10.80;99.90;;;;;;6132459;23;20136;-74
2023/05/26 01:39:45;;;;;;;19.60;6.03;;;10.70;99.90;;;;;;6131945;23;20236;-73
2023/05/26 01:42:29;;;;;;;19.17;6.50;;;10.70;99.90;;;;;;6130770;23;20141;-75
2023/05/26 01:45:01;;;;;;;20.67;6.47;;;10.70;99.90;;;;;;6130881;23;20431;-73
2023/05/26 01:47:30;;;;;;;20.57;6.33;;;10.60;99.90;;;;;;6129070;23;20368;-75
2023/05/26 01:50:00;;;;;;;21.40;7.50;;;10.60;99.90;;;;;;6129353;23;20433;-73
2023/05/26 01:52:27;;;;;;;18.90;5.30;;;10.70;99.90;;;;;;6130627;23;20515;-74
2023/05/26 01:55:00;;;;;;;19.40;5.73;;;10.70;99.90;;;;;;6130457;23;20423;-74
2023/05/26 01:57:28;;;;;;;13.63;6.10;;;10.70;99.90;;;;;;6129850;23;20415;-73
2023/05/26 01:59:55;;;;;;;31.60;6.60;;;10.60;99.90;;;;;;6128446;23;20400;-74
2023/05/26 02:02:21;;;;;;;20.00;5.90;;;10.50;99.90;;;;;;6129338;23;20532;-73
2023/05/26 02:04:46;;;;;;;19.80;5.70;;;10.50;99.90;;;;;;6129239;23;20152;-74
2023/05/26 02:07:16;;;;;;;18.70;5.70;;;10.50;99.90;;;;;;6129713;23;20556;-73
2023/05/26 02:09:41;;;;;;;19.33;6.67;;;10.40;99.90;;;;;;6132600;23;20440;-74
2023/05/26 02:12:07;;;;;;;25.80;6.77;;;10.40;99.90;;;;;;6129957;23;20175;-73
2023/05/26 02:14:33;;;;;;;21.83;5.43;;;10.40;99.90;;;;;;6140643;23;20132;-73
2023/05/26 02:16:58;;;;;;;25.07;6.40;;;10.30;99.90;;;;;;6134166;23;20463;-74
2023/05/26 02:19:25;;;;;;;29.00;6.30;;;10.20;99.90;;;;;;6128760;23;20171;-74
2023/05/26 02:21:51;;;;;;;15.00;5.73;;;10.20;99.90;;;;;;6128962;23;20168;-74
2023/05/26 02:24:18;;;;;;;13.37;4.90;;;10.20;99.90;;;;;;6128912;23;20382;-74
2023/05/26 02:26:44;;;;;;;21.73;6.30;;;10.20;99.90;;;;;;6129711;23;20443;-74
2023/05/26 02:29:12;;;;;;;21.77;5.40;;;10.10;99.90;;;;;;6127833;23;20172;-73
2023/05/26 02:31:39;;;;;;;18.33;4.67;;;10.10;99.90;;;;;;6128903;23;20456;-73
2023/05/26 02:34:05;;;;;;;19.60;6.10;;;10.10;99.90;;;;;;6130313;23;20368;-73
2023/05/26 02:36:31;;;;;;;30.83;7.07;;;10.20;99.90;;;;;;6128608;23;20483;-73
2023/05/26 02:38:58;;;;;;;17.80;5.00;;;10.00;99.90;;;;;;6129227;23;20835;-74
2023/05/26 02:41:25;;;;;;;19.73;5.77;;;9.90;99.90;;;;;;6130045;23;20367;-73
2023/05/26 02:43:50;;;;;;;21.83;5.80;;;9.90;99.90;;;;;;6129558;23;20419;-74
2023/05/26 02:46:22;;;;;;;16.53;5.27;;;9.80;99.90;;;;;;6130019;23;20420;-74
2023/05/26 02:48:50;;;;;;;15.50;5.40;;;9.80;99.90;;;;;;6127667;23;20403;-73
2023/05/26 02:51:16;;;;;;;25.53;5.60;;;9.70;99.90;;;;;;6129697;23;20363;-74
2023/05/26 02:53:44;;;;;;;17.60;4.70;;;9.70;99.90;;;;;;6127981;23;20412;-75
2023/05/26 02:56:10;;;;;;;23.60;6.67;;;9.70;99.90;;;;;;6132929;23;20150;-76
2023/05/26 02:58:35;;;;;;;28.30;7.90;;;9.70;99.90;;;;;;6129579;23;20376;-74
2023/05/26 03:01:02;;;;;;;17.43;5.30;;;9.70;99.90;;;;;;6135876;23;20379;-74
2023/05/26 03:03:28;;;;;;;22.40;5.90;;;9.60;99.90;;;;;;6134729;23;20484;-74
2023/05/26 03:05:55;;;;;;;17.00;4.63;;;9.60;99.90;;;;;;6134832;23;20428;-74
2023/05/26 03:08:21;;;;;;;16.27;5.47;;;9.50;99.90;;;;;;6134890;23;20642;-73
2023/05/26 03:10:46;;;;;;;15.37;5.00;;;9.60;99.90;;;;;;6135269;23;20398;-74
2023/05/26 03:13:12;;;;;;;15.97;5.93;;;9.50;99.90;;;;;;6136444;23;20573;-73
2023/05/26 03:15:39;;;;;;;18.47;5.93;;;9.50;99.90;;;;;;6135268;23;20415;-75
2023/05/26 03:18:09;;;;;;;23.17;6.73;;;9.50;99.90;;;;;;6158956;23;20140;-74
2023/05/26 03:20:35;;;;;;;16.13;5.40;;;9.40;99.90;;;;;;6131629;23;20410;-74
2023/05/26 03:23:00;;;;;;;14.87;5.23;;;9.40;99.90;;;;;;6129101;23;20364;-75
2023/05/26 03:25:26;;;;;;;22.87;5.67;;;9.30;99.90;;;;;;6127995;23;20203;-72
2023/05/26 03:27:51;;;;;;;14.03;5.40;;;9.30;99.90;;;;;;6127702;23;20152;-74
2023/05/26 03:30:18;;;;;;;13.97;4.10;;;9.30;99.90;;;;;;6126344;23;20175;-74
2023/05/26 03:32:46;;;;;;;12.13;3.97;;;9.30;99.90;;;;;;6128055;23;20411;-73
2023/05/26 03:35:12;;;;;;;18.17;5.30;;;9.30;99.90;;;;;;6127809;23;20394;-74
2023/05/26 03:37:38;;;;;;;19.00;5.57;;;9.30;99.90;;;;;;6128145;23;20206;-74
2023/05/26 03:40:06;;;;;;;13.67;4.27;;;9.30;99.90;;;;;;6127212;23;20828;-74
2023/05/26 03:42:33;;;;;;;36.17;5.57;;;9.30;99.90;;;;;;6128442;23;20368;-73
2023/05/26 03:44:58;;;;;;;22.90;6.07;;;9.30;99.90;;;;;;6152210;23;20431;-74
2023/05/26 03:47:24;;;;;;;21.27;6.03;;;9.30;99.90;;;;;;6127409;23;20372;-74
2023/05/26 03:49:50;;;;;;;26.17;6.03;;;9.30;99.90;;;;;;6127570;23;20199;-74
2023/05/26 03:52:16;;;;;;;23.10;5.47;;;9.30;99.90;;;;;;6127869;23;20390;-74
2023/05/26 03:54:41;;;;;;;17.10;4.80;;;9.40;99.90;;;;;;6130748;23;20211;-74
2023/05/26 03:57:07;;;;;;;16.10;5.40;;;9.30;99.90;;;;;;6130471;23;20224;-74
2023/05/26 03:59:33;;;;;;;18.80;5.33;;;9.40;99.90;;;;;;6135933;23;20472;-73
2023/05/26 04:01:59;;;;;;;17.63;4.47;;;9.30;99.90;;;;;;6130121;23;20144;-74
2023/05/26 04:04:25;;;;;;;15.80;5.20;;;9.40;99.90;;;;;;6127691;23;20605;-75
2023/05/26 04:06:52;;;;;;;16.10;5.10;;;9.40;99.90;;;;;;6127958;23;20400;-73
2023/05/26 04:09:17;;;;;;;17.00;5.70;;;9.40;99.90;;;;;;6129490;23;20159;-74
2023/05/26 04:11:43;;;;;;;21.13;5.60;;;9.40;99.90;;;;;;6128787;23;20367;-74
2023/05/26 04:14:09;;;;;;;14.07;4.47;;;9.40;99.90;;;;;;6127335;23;20132;-75
2023/05/26 04:16:34;;;;;;;18.10;5.20;;;9.50;99.90;;;;;;6129149;23;20611;-74
2023/05/26 04:19:00;;;;;;;17.50;6.87;;;9.60;99.90;;;;;;6128704;23;20164;-73
2023/05/26 04:21:27;;;;;;;26.20;6.80;;;9.60;99.90;;;;;;6129387;23;20502;-76
2023/05/26 04:23:53;;;;;;;16.50;6.37;;;9.60;99.90;;;;;;6127596;23;20379;-76
2023/05/26 04:26:21;;;;;;;17.80;5.90;;;9.80;99.90;;;;;;6139666;23;20495;-74
2023/05/26 04:28:56;;;;;;;25.30;7.17;;;9.90;99.90;;;;;;6138832;23;20398;-75
2023/05/26 04:31:41;;;;;;;23.00;6.30;;;9.90;99.90;;;;;;6127893;23;20368;-74
2023/05/26 04:34:21;;;;;;;23.03;6.17;;;10.00;99.90;;;;;;6127178;23;20388;-74
2023/05/26 04:37:04;;;;;;;22.00;5.80;;;10.10;99.90;;;;;;6129195;23;20819;-75
2023/05/26 04:39:31;;;;;;;19.83;5.40;;;10.00;99.90;;;;;;6126908;23;20845;-75
2023/05/26 04:41:57;;;;;;;20.97;7.37;;;10.10;99.90;;;;;;6130215;23;20458;-73
2023/05/26 04:44:24;;;;;;;17.90;6.67;;;10.20;99.90;;;;;;6127237;23;20372;-75
2023/05/26 04:46:50;;;;;;;23.73;6.60;;;10.30;99.90;;;;;;6127155;23;20454;-76
2023/05/26 04:49:16;;;;;;;29.33;10.10;;;10.30;99.90;;;;;;6128121;23;20781;-74
2023/05/26 04:51:42;;;;;;;21.43;6.27;;;10.50;99.90;;;;;;6128439;23;20916;-74
2023/05/26 04:54:08;;;;;;;27.17;7.50;;;10.70;99.90;;;;;;6125618;23;20450;-76
2023/05/26 04:56:34;;;;;;;24.20;7.50;;;10.90;99.90;;;;;;6128107;23;20506;-76
2023/05/26 04:59:00;;;;;;;24.67;8.07;;;11.20;99.90;;;;;;6125655;23;20167;-75
2023/05/26 05:01:26;;;;;;;21.37;7.87;;;11.50;99.90;;;;;;6133361;23;20360;-74
2023/05/26 05:04:10;;;;;;;21.47;7.60;;;11.70;99.90;;;;;;6136171;23;20378;-74
2023/05/26 05:06:42;;;;;;;21.70;7.63;;;11.90;99.90;;;;;;6112738;23;20428;-74
2023/05/26 05:09:08;;;;;;;37.80;9.23;;;12.20;99.90;;;;;;6136265;23;20717;-74
2023/05/26 05:11:34;;;;;;;17.37;6.93;;;12.30;99.90;;;;;;6135840;23;20140;-74
2023/05/26 05:14:02;;;;;;;23.20;6.67;;;12.50;99.30;;;;;;6139737;23;20144;-77
2023/05/26 05:16:27;;;;;;;18.50;8.97;;;12.60;98.80;;;;;;6141707;23;20419;-77
2023/05/26 05:18:53;;;;;;;18.43;7.07;;;12.80;97.60;;;;;;6117628;23;20579;-76
2023/05/26 05:21:19;;;;;;;25.07;8.33;;;13.00;95.90;;;;;;6119806;23;20150;-75
2023/05/26 05:23:45;;;;;;;23.47;8.47;;;13.00;95.30;;;;;;6141469;23;20144;-79
2023/05/26 05:26:12;;;;;;;19.50;8.00;;;13.20;95.20;;;;;;6140679;23;20437;-74
2023/05/26 05:28:39;;;;;;;22.83;8.90;;;13.30;93.80;;;;;;6144584;23;20398;-77
2023/05/26 05:31:09;;;;;;;23.03;9.00;;;13.40;93.00;;;;;;6118512;23;20429;-76
2023/05/26 05:33:39;;;;;;;18.43;8.87;;;13.70;90.90;;;;;;6119505;23;20407;-76
2023/05/26 05:36:05;;;;;;;24.13;9.80;;;13.80;90.50;;;;;;6145084;23;20376;-76
2023/05/26 05:38:32;;;;;;;20.30;9.17;;;14.10;85.80;;;;;;6143889;23;20403;-76
2023/05/26 05:40:58;;;;;;;19.23;9.13;;;14.20;83.80;;;;;;6146354;23;20372;-76
2023/05/26 05:43:24;;;;;;;18.27;8.50;;;14.20;82.80;;;;;;6145099;23;20422;-75
2023/05/26 05:45:50;;;;;;;24.63;9.13;;;14.30;82.60;;;;;;6144259;23;20160;-75
2023/05/26 05:48:39;;;;;;;18.20;7.97;;;14.50;82.60;;;;;;6144309;23;20128;-76
2023/05/26 05:51:19;;;;;;;25.80;9.67;;;14.70;79.00;;;;;;6142964;23;20382;-76
2023/05/26 05:53:46;;;;;;;21.07;9.50;;;14.90;73.90;;;;;;6143349;23;20416;-78
2023/05/26 05:56:12;;;;;;;21.23;8.60;;;14.80;73.80;;;;;;6121045;23;20171;-75
2023/05/26 05:58:38;;;;;;;19.83;7.33;;;15.00;74.90;;;;;;6148604;23;20377;-78
2023/05/26 06:01:04;;;;;;;19.30;9.30;;;15.20;73.20;;;;;;6147152;23;20146;-75
2023/05/26 06:03:30;;;;;;;24.10;8.67;;;15.30;70.90;;;;;;6147222;23;20421;-78
2023/05/26 06:05:56;;;;;;;14.30;7.30;;;15.40;70.70;;;;;;6123291;23;20407;-76
2023/05/26 06:08:22;;;;;;;16.63;8.63;;;15.60;69.20;;;;;;6123546;23;20380;-77
2023/05/26 06:10:49;;;;;;;14.40;6.93;;;15.70;66.50;;;;;;6118857;23;20156;-76
2023/05/26 06:13:16;;;;;;;19.00;7.73;;;15.80;66.40;;;;;;6114465;23;20804;-75
2023/05/26 06:15:42;;;;;;;20.73;8.90;;;16.00;64.40;;;;;;6090696;23;20389;-76
2023/05/26 06:18:07;;;;;;;27.33;11.03;;;16.10;63.40;;;;;;6116460;23;20182;-76
2023/05/26 06:20:34;;;;;;;17.50;8.40;;;16.10;62.90;;;;;;6141525;23;20171;-77
2023/05/26 06:23:00;;;;;;;19.10;10.13;;;16.30;62.80;;;;;;6146032;23;20167;-78
2023/05/26 06:25:26;;;;;;;26.83;10.10;;;16.40;61.60;;;;;;6119094;23;20423;-75
2023/05/26 06:27:52;;;;;;;33.40;9.90;;;16.30;60.30;;;;;;6115586;23;20410;-75
2023/05/26 06:30:18;;;;;;;17.10;8.13;;;16.30;60.50;;;;;;6139398;23;20199;-76
2023/05/26 06:32:47;;;;;;;17.90;9.47;;;16.40;60.10;;;;;;6138289;23;20140;-74
2023/05/26 06:35:12;;;;;;;23.90;10.40;;;16.20;60.80;;;;;;6142186;23;20372;-78
2023/05/26 06:37:39;;;;;;;29.13;10.23;;;16.40;61.10;;;;;;6142572;23;20182;-76
2023/05/26 06:40:05;;;;;;;20.80;7.93;;;16.50;60.00;;;;;;6139429;23;20396;-73
2023/05/26 06:42:35;;;;;;;26.97;10.50;;;16.40;60.90;;;;;;6141509;23;20144;-77
2023/05/26 06:45:02;;;;;;;18.70;9.23;;;16.50;60.80;;;;;;6150779;23;20404;-77
2023/05/26 06:47:30;;;;;;;25.53;9.90;;;16.60;60.50;;;;;;6148267;23;20258;-75
2023/05/26 06:50:08;;;;;;;22.80;10.50;;;16.70;59.40;;;;;;6141651;23;20418;-77
2023/05/26 06:52:36;;;;;;;28.97;12.13;;;16.40;59.80;;;;;;6119743;23;20376;-78
2023/05/26 06:55:03;;;;;;;18.33;8.97;;;16.40;60.00;;;;;;6146914;23;20478;-79
2023/05/26 06:57:28;;;;;;;33.30;10.27;;;16.30;61.00;;;;;;6114796;23;20407;-74
2023/05/26 06:59:54;;;;;;;30.83;12.87;;;16.10;61.20;;;;;;6139223;23;20422;-77
2023/05/26 07:02:20;;;;;;;31.13;10.67;;;16.00;61.50;;;;;;6138968;23;20171;-78
2023/05/26 07:04:47;;;;;;;30.50;12.93;;;15.80;62.70;;;;;;6141240;23;20143;-75
2023/05/26 07:07:13;;;;;;;25.00;9.93;;;15.90;63.50;;;;;;6116083;23;20408;-79
2023/05/26 07:09:39;;;;;;;27.30;11.47;;;15.80;64.60;;;;;;6092090;23;20451;-77
2023/05/26 07:12:12;;;;;;;20.80;8.80;;;15.60;65.20;;;;;;6065132;23;20156;-75
2023/05/26 07:14:46;;;;;;;24.50;11.63;;;15.70;65.10;;;;;;6091858;23;20433;-78
2023/05/26 07:17:14;;;;;;;22.37;10.10;;;15.80;64.10;;;;;;6093588;23;20415;-77
2023/05/26 07:19:43;;;;;;;25.53;11.40;;;15.80;66.10;;;;;;6042128;23;20453;-78
2023/05/26 07:22:09;;;;;;;24.23;10.20;;;16.00;64.50;;;;;;6088487;23;20392;-78
2023/05/26 07:24:45;;;;;;;24.63;11.13;;;16.00;63.90;;;;;;6094417;23;20628;-77
2023/05/26 07:27:17;;;;;;;15.33;8.00;;;15.90;64.60;;;;;;6119988;23;20423;-77
2023/05/26 07:29:43;;;;;;;19.83;9.87;;;15.80;66.20;;;;;;6065420;23;20400;-77
2023/05/26 07:32:09;;;;;;;25.43;11.00;;;15.90;66.00;;;;;;6087932;23;20411;-77
2023/05/26 07:34:36;;;;;;;22.00;11.27;;;15.90;65.80;;;;;;6110306;23;20373;-77
2023/05/26 07:37:03;;;;;;;18.87;8.20;;;15.80;65.50;;;;;;6068233;23;20136;-79
2023/05/26 07:39:38;;;;;;;29.53;10.90;;;15.70;66.60;;;;;;6147453;23;20395;-80
2023/05/26 07:42:05;;;;;;;20.80;9.93;;;15.70;67.30;;;;;;6077451;23;20418;-78
2023/05/26 07:44:31;;;;;;;30.47;12.70;;;15.60;66.70;;;;;;6079060;23;20391;-79
2023/05/26 07:46:57;;;;;;;26.60;9.80;;;15.40;68.40;;;;;;6150522;23;20403;-79
2023/05/26 07:49:23;;;;;;;19.27;9.60;;;15.30;70.70;;;;;;6123215;23;20196;-76
2023/05/26 07:51:48;;;;;;;27.40;10.80;;;15.20;71.60;;;;;;6094746;23;20151;-75
2023/05/26 07:54:14;;;;;;;25.90;11.03;;;15.20;72.70;;;;;;6145121;23;20188;-78
2023/05/26 07:56:44;;;;;;;22.87;10.43;;;14.90;77.20;;;;;;6147481;23;20208;-79
2023/05/26 07:59:10;;;;;;;24.10;9.93;;;15.00;75.80;;;;;;6120113;23;20398;-79
2023/05/26 08:01:38;;;;;;;23.30;10.90;;;15.10;74.60;;;;;;6149036;23;20368;-78
2023/05/26 08:04:07;;;;;;;19.13;9.63;;;15.10;74.90;;;;;;6104736;23;20418;-78
2023/05/26 08:06:36;;;;;;;24.00;9.63;;;15.10;74.50;;;;;;6152581;23;20404;-79
2023/05/26 08:09:13;;;;;;;27.37;11.50;;;15.10;76.00;;;;;;6173715;22;20500;-78
2023/05/26 08:11:43;;;;;;;21.00;8.80;;;15.20;74.80;;;;;;6193361;22;20364;-81
2023/05/26 08:14:11;;;;;;;25.70;9.30;;;15.20;74.00;;;;;;6108123;23;20399;-78
2023/05/26 08:16:39;;;;;;;24.57;10.60;;;15.20;74.60;;;;;;6133168;23;20375;-80
2023/05/26 08:19:26;;;;;;;23.57;8.90;;;15.20;73.50;;;;;;6153194;23;20431;-79
2023/05/26 08:21:58;;;;;;;22.63;8.47;;;15.20;74.80;;;;;;6128598;23;20436;-80
2023/05/26 08:24:53;;;;;;;23.97;7.47;;;15.40;74.90;;;;;;6081124;23;20387;-79
2023/05/26 08:27:48;;;;;;;27.87;10.43;;;15.50;73.60;;;;;;6153034;23;20406;-81
2023/05/26 08:30:44;;;;;;;20.67;9.63;;;15.70;70.20;;;;;;6151956;23;20383;-81
2023/05/26 09:23:18;;;;;;;22.50;9.40;;;16.40;67.50;;;;;;6233362;22;20459;-81
2023/05/26 09:38:57;;;;;;;28.90;9.97;;;16.40;66.60;;;;;;6247320;22;20475;-81
2023/05/26 10:59:18;;;;;;;18.73;8.73;;;18.30;56.90;;;;;;6235186;22;20517;-81
2023/05/26 12:33:11;;;;;;;18.43;6.33;;;20.20;50.20;;;;;;6235692;22;20467;-77
2023/05/26 12:35:37;;;;;;;12.83;6.10;;;20.10;50.60;;;;;;6185934;23;20443;-79
2023/05/26 12:38:03;;;;;;;19.47;7.97;;;20.10;51.00;;;;;;6186452;23;20564;-78
2023/05/26 12:40:29;;;;;;;19.17;6.70;;;20.20;51.20;;;;;;6189591;23;20169;-80
2023/05/26 12:42:55;;;;;;;17.27;7.03;;;20.30;51.10;;;;;;6189190;23;20385;-79
2023/05/26 12:45:26;;;;;;;17.43;6.60;;;20.30;50.50;;;;;;6190005;23;20166;-80
2023/05/26 12:47:54;;;;;;;20.40;7.40;;;20.30;50.30;;;;;;6242593;22;20359;-80
2023/05/26 12:54:29;;;;;;;15.77;6.90;;;20.40;50.10;;;;;;6213377;22;20461;-80
2023/05/26 12:57:06;;;;;;;24.00;7.60;;;20.40;50.30;;;;;;6211849;23;20420;-80
2023/05/26 12:59:33;;;;;;;11.57;6.40;;;20.60;50.10;;;;;;6181909;23;20408;-79
2023/05/26 13:02:01;;;;;;;11.93;5.43;;;20.60;49.50;;;;;;6160280;23;20367;-79
2023/05/26 13:04:32;;;;;;;18.93;7.40;;;20.50;50.00;;;;;;6184037;23;20362;-80
2023/05/26 13:07:08;;;;;;;15.00;6.30;;;20.50;49.50;;;;;;6180075;23;20417;-79
2023/05/26 13:09:37;;;;;;;16.63;6.57;;;20.50;49.40;;;;;;6131555;23;20391;-80
2023/05/26 13:13:09;;;;;;;17.73;6.83;;;20.60;49.70;;;;;;6175164;23;20447;-81
2023/05/26 13:15:59;;;;;;;21.53;8.27;;;20.80;49.90;;;;;;6243679;22;20376;-83
2023/05/26 13:49:43;;;;;;;20.33;7.53;;;20.60;48.70;;;;;;6246320;22;20447;-79
2023/05/26 13:52:10;;;;;;;22.83;5.50;;;20.60;46.70;;;;;;6191188;23;20480;-79
2023/05/26 13:54:40;;;;;;;18.33;6.50;;;20.50;46.10;;;;;;6217003;23;20380;-80
2023/05/26 14:00:20;;;;;;;15.33;5.73;;;20.50;47.60;;;;;;6208413;23;20505;-79
2023/05/26 14:02:50;;;;;;;15.03;5.50;;;20.50;47.60;;;;;;6161849;23;20373;-80
2023/05/26 14:05:18;;;;;;;15.87;6.60;;;20.50;46.80;;;;;;6137883;23;20467;-79
2023/05/26 14:07:58;;;;;;;16.60;6.13;;;20.50;46.30;;;;;;6115506;23;20420;-80
2023/05/26 14:10:46;;;;;;;16.63;5.27;;;20.50;46.50;;;;;;6130742;23;20402;-80
2023/05/26 14:18:48;;;;;;;19.83;5.77;;;20.40;46.30;;;;;;6240658;22;20454;-82
2023/05/26 14:21:15;;;;;;;18.93;5.10;;;20.50;45.80;;;;;;6192443;23;20384;-80
2023/05/26 14:23:43;;;;;;;15.20;5.37;;;20.50;45.50;;;;;;6218334;23;20373;-80
2023/05/26 14:29:00;;;;;;;19.60;5.40;;;20.60;45.50;;;;;;6241697;22;20487;-80
2023/05/26 14:31:48;;;;;;;17.03;5.57;;;20.60;45.10;;;;;;6169732;22;20431;-81
2023/05/26 14:34:19;;;;;;;16.87;5.60;;;20.60;45.40;;;;;;6145085;22;20424;-80
2023/05/26 14:37:09;;;;;;;14.87;5.57;;;20.50;46.10;;;;;;6171108;23;20392;-81
2023/05/26 14:45:05;;;;;;;12.47;5.30;;;20.60;45.90;;;;;;6217835;23;20408;-80
2023/05/26 14:47:44;;;;;;;16.23;6.27;;;20.60;46.10;;;;;;6126126;23;20384;-81
2023/05/26 14:50:10;;;;;;;14.53;6.00;;;20.70;45.90;;;;;;6186450;23;20448;-81
2023/05/26 14:52:45;;;;;;;20.60;6.43;;;20.70;45.80;;;;;;6193302;23;20377;-78
2023/05/26 14:55:23;;;;;;;11.40;4.97;;;20.70;44.80;;;;;;6169974;23;20377;-80
2023/05/26 14:57:49;;;;;;;12.73;5.13;;;20.60;45.20;;;;;;6107749;23;20396;-79
2023/05/26 15:00:16;;;;;;;15.10;5.30;;;20.60;44.80;;;;;;6150898;23;20459;-79
2023/05/26 15:03:01;;;;;;;;;;;;;;;;;;;;;
2023/05/26 15:05:58;;;;;;;16.83;5.30;;;20.70;43.60;;;;;;6123077;23;20411;-80
2023/05/26 15:08:33;;;;;;;13.90;4.90;;;20.60;43.60;;;;;;6157674;23;20402;-79
2023/05/26 15:10:59;;;;;;;13.03;4.37;;;20.60;43.50;;;;;;6105689;23;20476;-80
2023/05/26 15:13:31;;;;;;;14.73;5.30;;;20.60;43.30;;;;;;6180323;23;20218;-79
2023/05/26 15:16:05;;;;;;;18.43;5.37;;;20.60;43.00;;;;;;6132248;23;20394;-80
2023/05/26 15:18:31;;;;;;;15.43;8.03;;;20.50;43.30;;;;;;6178595;23;20375;-81
2023/05/26 15:20:59;;;;;;;15.20;5.40;;;20.50;43.30;;;;;;6155905;23;20363;-80
2023/05/26 15:23:26;;;;;;;10.90;4.83;;;20.50;43.40;;;;;;6154673;23;20446;-80
2023/05/26 15:25:53;;;;;;;10.90;4.83;;;20.50;42.30;;;;;;6180345;23;20422;-79
2023/05/26 15:28:20;;;;;;;17.93;4.30;;;20.40;42.10;;;;;;6142418;23;20366;-81
2023/05/26 15:30:46;;;;;;;13.50;4.70;;;20.50;42.50;;;;;;6137318;23;20397;-80
2023/05/26 15:33:13;;;;;;;15.07;4.93;;;20.40;41.60;;;;;;6185996;23;20400;-79
2023/05/26 15:35:42;;;;;;;12.33;4.60;;;20.40;41.30;;;;;;6187153;23;20355;-80
2023/05/26 15:38:08;;;;;;;14.80;5.97;;;20.50;41.50;;;;;;6160331;23;20388;-79
2023/05/26 15:40:36;;;;;;;14.53;5.27;;;20.50;41.30;;;;;;6186130;23;20449;-81
2023/05/26 15:43:07;;;;;;;13.20;4.40;;;20.50;40.70;;;;;;6187239;23;20145;-81
2023/05/26 15:45:33;;;;;;;16.20;4.70;;;20.40;40.40;;;;;;6162266;23;20436;-81
2023/05/26 15:48:00;;;;;;;13.43;5.10;;;20.40;40.30;;;;;;6112854;23;20377;-80
2023/05/26 15:50:26;;;;;;;12.37;5.50;;;20.30;40.30;;;;;;6159617;23;20424;-80
2023/05/26 15:52:52;;;;;;;10.80;5.00;;;20.30;40.80;;;;;;6150666;23;20376;-79
2023/05/26 15:55:20;;;;;;;16.23;4.50;;;20.30;41.00;;;;;;6077931;23;20451;-80
2023/05/26 15:57:45;;;;;;;14.30;5.13;;;20.30;41.20;;;;;;6126407;23;20416;-81
2023/05/26 16:00:17;;;;;;;14.90;4.83;;;20.20;41.70;;;;;;6151564;23;20379;-80
2023/05/26 16:02:46;;;;;;;15.43;5.03;;;20.20;42.30;;;;;;6127087;23;20402;-80
2023/05/26 16:05:14;;;;;;;16.97;8.37;;;20.30;41.30;;;;;;6151171;23;20442;-80
2023/05/26 16:07:40;;;;;;;10.57;5.17;;;20.40;41.00;;;;;;6150760;23;20466;-80
2023/05/26 16:10:13;;;;;;;9.73;4.10;;;20.40;40.40;;;;;;6192484;23;20424;-80
2023/05/26 16:12:41;;;;;;;14.07;5.90;;;20.50;40.00;;;;;;6184785;23;20377;-78
2023/05/26 16:15:09;;;;;;;11.53;5.63;;;20.60;40.30;;;;;;6185183;23;20846;-79
2023/05/26 16:17:39;;;;;;;16.43;4.00;;;20.60;40.70;;;;;;6184829;23;20421;-81
2023/05/26 16:20:06;;;;;;;15.70;5.00;;;20.50;40.40;;;;;;6183238;23;20401;-78
2023/05/26 16:22:32;;;;;;;15.90;5.60;;;20.50;40.30;;;;;;6135949;23;20378;-79
2023/05/26 16:24:57;;;;;;;11.90;4.30;;;20.50;40.30;;;;;;6183351;23;20396;-80
2023/05/26 16:27:24;;;;;;;17.90;4.70;;;20.50;40.20;;;;;;6119501;23;20149;-79
2023/05/26 16:29:50;;;;;;;14.23;5.30;;;20.50;39.90;;;;;;6096633;23;20413;-80
2023/05/26 16:32:17;;;;;;;14.17;4.80;;;20.40;38.80;;;;;;6097326;23;20408;-80
2023/05/26 16:34:44;;;;;;;12.57;5.30;;;20.30;39.40;;;;;;6120367;23;20160;-80
2023/05/26 16:37:15;;;;;;;10.73;4.80;;;20.30;39.10;;;;;;6119519;23;20407;-79
2023/05/26 16:39:42;;;;;;;9.47;4.13;;;20.30;38.90;;;;;;6145108;23;20419;-81
2023/05/26 16:42:09;;;;;;;11.23;3.80;;;20.30;38.60;;;;;;6146746;23;20368;-80
2023/05/26 16:44:34;;;;;;;10.53;4.33;;;20.30;39.10;;;;;;6104827;23;20468;-80
2023/05/26 16:47:03;;;;;;;15.30;4.37;;;20.10;39.50;;;;;;6127147;23;20195;-80
2023/05/26 16:49:29;;;;;;;11.27;3.87;;;20.20;39.60;;;;;;6151015;23;20371;-82
2023/05/26 16:52:00;;;;;;;9.20;4.67;;;20.20;39.20;;;;;;6152547;23;20364;-80
2023/05/26 16:54:28;;;;;;;9.40;3.20;;;20.20;38.10;;;;;;6150197;23;20411;-80
2023/05/26 16:56:54;;;;;;;9.90;3.73;;;20.20;35.10;;;;;;6150289;23;20344;-80
2023/05/26 16:59:23;;;;;;;9.17;3.63;;;20.20;35.40;;;;;;6181971;23;20425;-79
2023/05/26 17:01:49;;;;;;;11.93;3.67;;;20.20;35.80;;;;;;6211179;23;20385;-80
2023/05/26 17:04:15;;;;;;;8.33;3.23;;;20.10;36.10;;;;;;6184888;23;20429;-79
2023/05/26 17:07:01;;;;;;;8.27;3.93;;;20.10;36.20;;;;;;6184980;23;20209;-80
2023/05/26 17:09:29;;;;;;;7.83;4.50;;;20.10;35.90;;;;;;6208891;23;20190;-79
2023/05/26 17:11:58;;;;;;;8.50;3.60;;;20.10;36.30;;;;;;6185675;23;20393;-79
2023/05/26 17:14:32;;;;;;;10.97;4.10;;;20.20;36.60;;;;;;6159901;23;20468;-80
2023/05/26 17:17:01;;;;;;;12.53;4.93;;;20.10;36.40;;;;;;6209015;23;20675;-79
2023/05/26 17:19:27;;;;;;;9.73;3.80;;;20.00;36.20;;;;;;6208950;23;20409;-80
2023/05/26 17:21:57;;;;;;;7.10;3.40;;;20.10;36.30;;;;;;6186023;23;20385;-79
2023/05/26 17:24:44;;;;;;;12.00;3.37;;;20.00;35.70;;;;;;6189159;23;20397;-79
2023/05/26 17:27:12;;;;;;;9.23;3.80;;;20.10;35.90;;;;;;6159084;23;20448;-80
2023/05/26 17:29:38;;;;;;;9.77;3.70;;;20.20;35.40;;;;;;6159821;23;20396;-80
2023/05/26 17:32:18;;;;;;;9.67;3.73;;;20.40;35.00;;;;;;6208435;23;20372;-79